Vremea acum in Ineu - Romania

Vrei sa afli care e starea vremii acum in Arad - Romania? Dorim sa iti furnizam starea vremii pentru Arad - Romania. Starea vremii Arad - Romania pentru astazi.

Vremea acum in Ineu

Temperatura: 9 °C

Se simte ca: 9 °C
Innorat: 0 %
Precipitatii: 0 %
Presiune atmosferica: 1020 hPa
Umiditate: 100%
Vizibilitate: 1.7 km
Vantul bate din N cu 0 km/h

Evolutia vremii in Ineu pe ore

Ora: 00:00
Parțial noros
Temperatura: 9.5°C
Sansa de precipitatii: 0%
Ora Descriere Temp Se simte Precipitatii Umiditate Vant
00:00Parțial noros9.5°9.5°0%91%NNE 1.8 KM/H
01:00Parțial noros9.3°9.3°0%92%NNE 1.4 KM/H
02:00Parțial noros0%93%NE 1.1 KM/H
03:00Ceață8.7°8.7°0%93%ESE 1.1 KM/H
04:00Parțial noros8.5°8.5°0%94%S 1.1 KM/H
05:00Ceață8.2°8.2°0%95%W 1.1 KM/H
06:00Parțial noros8.4°8.4°0%94%SW 1.1 KM/H
07:00Ceață8.5°8.5°0%93%SSW 1.1 KM/H
08:00Parțial noros8.7°8.7°0%92%SSE 1.1 KM/H
09:00Parțial noros11.1°11.1°0%83%SSW 2.5 KM/H
10:00Parțial noros13.4°13.4°0%74%WSW 3.6 KM/H
11:00Parțial noros15.8°15.8°0%66%WNW 5 KM/H
12:00Parțial noros16.5°16.5°0%62%WNW 6.1 KM/H
13:00Parțial noros17.3°17.3°0%58%NW 7.6 KM/H
14:00Parțial noros18°18°0%55%NW 8.6 KM/H
15:00Parțial noros17.1°17.1°0%58%NW 7.9 KM/H
16:00Parțial noros16.3°16.3°0%62%NW 7.6 KM/H
17:00Parțial noros15.4°15.4°0%65%NW 6.8 KM/H
18:00Noros13.8°13.8°0%71%NNW 6.1 KM/H
19:00Parțial noros12.3°12.3°0%76%NNW 5.4 KM/H
20:00Noros10.7°10.7°0%82%N 4.7 KM/H
21:00Parțial noros10.3°10.3°0%84%WSW 3.6 KM/H
22:00Noros9.9°9.9°0%86%SSE 2.5 KM/H
23:00Parțial noros9.5°9.5°0%88%ENE 1.4 KM/H